createdAt,value
2022-10-25T00:02:42.521Z,16.28
2022-10-25T00:05:44.691Z,16.22
2022-10-25T00:08:46.823Z,16.31
2022-10-25T00:11:48.898Z,16.32
2022-10-25T00:14:50.982Z,16.28
2022-10-25T00:17:53.187Z,16.31
2022-10-25T00:20:55.451Z,16.30
2022-10-25T00:23:57.479Z,16.31
2022-10-25T00:27:00.565Z,16.33
2022-10-25T00:30:04.462Z,16.40
2022-10-25T00:33:06.461Z,16.39
2022-10-25T00:36:11.637Z,16.38
2022-10-25T00:39:15.166Z,16.37
2022-10-25T00:42:23.492Z,16.36
2022-10-25T00:45:27.808Z,16.36
2022-10-25T00:48:30.319Z,16.41
2022-10-25T00:51:37.066Z,16.42
2022-10-25T00:54:46.462Z,16.38
2022-10-25T00:58:04.101Z,16.41
2022-10-25T01:01:09.048Z,16.36
2022-10-25T01:04:15.133Z,16.39
2022-10-25T01:07:17.187Z,16.34
2022-10-25T01:10:19.490Z,16.37
2022-10-25T01:13:21.694Z,16.37
2022-10-25T01:16:36.136Z,16.30
2022-10-25T01:20:11.967Z,16.12
2022-10-25T01:23:44.791Z,16.35
2022-10-25T01:27:18.600Z,16.34
2022-10-25T01:30:24.219Z,16.37
2022-10-25T01:33:31.130Z,16.36
2022-10-25T01:37:00.434Z,16.37
2022-10-25T01:40:23.675Z,16.35
2022-10-25T01:43:25.629Z,16.36
2022-10-25T01:46:44.416Z,16.31
2022-10-25T01:50:01.369Z,16.32
2022-10-25T01:53:03.369Z,16.20
2022-10-25T01:56:06.302Z,16.27
2022-10-25T01:59:30.265Z,16.22
2022-10-25T02:03:09.517Z,16.22
2022-10-25T02:06:36.053Z,16.14
2022-10-25T02:09:52.383Z,16.15
2022-10-25T02:13:27.146Z,16.16
2022-10-25T02:16:36.323Z,16.18
2022-10-25T02:19:45.780Z,16.17
2022-10-25T02:22:50.011Z,16.09
2022-10-25T02:25:53.601Z,16.09
2022-10-25T02:28:57.105Z,16.18
2022-10-25T02:31:59.674Z,16.19
2022-10-25T02:35:02.134Z,16.23
2022-10-25T02:38:04.547Z,16.25
2022-10-25T02:41:06.576Z,16.18
2022-10-25T02:44:08.710Z,16.17
2022-10-25T02:47:10.761Z,16.16
2022-10-25T02:50:12.917Z,16.16
2022-10-25T02:53:14.970Z,16.18
2022-10-25T02:56:20.624Z,16.19
2022-10-25T02:59:22.800Z,16.11
2022-10-25T03:02:24.844Z,16.11
2022-10-25T03:05:26.882Z,16.11
2022-10-25T03:11:35.890Z,16.18
2022-10-25T03:14:37.969Z,16.18
2022-10-25T03:17:40.079Z,16.15
2022-10-25T03:20:43.175Z,16.20
2022-10-25T03:23:45.218Z,16.17
2022-10-25T03:26:47.342Z,16.16
2022-10-25T03:29:49.377Z,16.26
2022-10-25T03:32:51.311Z,16.26
2022-10-25T03:35:55.166Z,16.24
2022-10-25T03:38:57.240Z,16.14
2022-10-25T03:41:59.288Z,16.21
2022-10-25T03:45:01.343Z,16.16
2022-10-25T03:48:03.410Z,16.13
2022-10-25T03:51:05.547Z,16.18
2022-10-25T03:54:07.671Z,16.41
2022-10-25T03:57:10.096Z,16.73
2022-10-25T04:00:12.778Z,17.14
2022-10-25T04:03:14.824Z,17.34
2022-10-25T04:06:17.003Z,17.35
2022-10-25T04:09:19.269Z,17.30
2022-10-25T04:12:21.253Z,17.39
2022-10-25T04:15:24.196Z,17.35
2022-10-25T04:18:26.334Z,17.37
2022-10-25T04:21:28.402Z,17.19
2022-10-25T04:24:30.976Z,17.28
2022-10-25T04:27:33.058Z,17.15
2022-10-25T04:30:37.964Z,17.06
2022-10-25T04:33:43.047Z,17.12
2022-10-25T04:36:47.245Z,17.08
2022-10-25T04:39:49.233Z,17.02
2022-10-25T04:42:51.290Z,16.90
2022-10-25T04:45:53.969Z,16.90
2022-10-25T04:48:55.974Z,16.79
2022-10-25T04:51:58.482Z,16.82
2022-10-25T04:55:00.632Z,16.78
2022-10-25T04:58:03.042Z,16.80
2022-10-25T05:01:08.791Z,16.78
2022-10-25T05:04:10.869Z,16.64
2022-10-25T05:07:13.247Z,16.67
2022-10-25T05:10:15.808Z,16.65
2022-10-25T05:13:18.087Z,16.58
2022-10-25T05:16:23.829Z,16.54
2022-10-25T05:19:27.283Z,16.46
2022-10-25T05:22:31.338Z,16.57
2022-10-25T05:25:33.253Z,16.34
2022-10-25T05:28:36.924Z,16.36
2022-10-25T05:31:40.785Z,16.32
2022-10-25T05:34:43.864Z,16.42
2022-10-25T05:37:45.974Z,16.70
2022-10-25T05:44:06.351Z,16.94
2022-10-25T05:47:08.488Z,16.94
2022-10-25T05:50:10.593Z,17.09
2022-10-25T05:53:12.734Z,17.14
2022-10-25T05:56:15.846Z,17.24
2022-10-25T05:59:17.962Z,17.28
2022-10-25T06:02:20.152Z,17.51
2022-10-25T06:05:22.410Z,17.73
2022-10-25T06:08:24.518Z,17.78
2022-10-25T06:11:27.744Z,17.90
2022-10-25T06:14:29.734Z,17.95
2022-10-25T06:17:32.329Z,18.05
2022-10-25T06:20:34.514Z,18.15
2022-10-25T06:23:36.680Z,18.27
2022-10-25T06:26:38.739Z,18.90
2022-10-25T06:29:40.818Z,20.58
2022-10-25T06:32:44.231Z,22.73
2022-10-25T06:35:46.320Z,24.51
2022-10-25T06:38:49.445Z,24.01
2022-10-25T06:41:51.573Z,23.44
2022-10-25T06:44:53.989Z,23.15
2022-10-25T06:47:57.623Z,23.31
2022-10-25T06:51:09.285Z,23.36
2022-10-25T06:54:11.901Z,23.29
2022-10-25T06:57:14.730Z,23.05
2022-10-25T07:00:16.963Z,22.63
2022-10-25T07:03:19.073Z,22.30
2022-10-25T07:06:29.610Z,21.87
2022-10-25T07:09:31.647Z,21.42
2022-10-25T07:12:38.192Z,21.03
2022-10-25T07:15:42.174Z,20.91
2022-10-25T07:18:44.776Z,20.88
2022-10-25T07:21:46.860Z,20.78
2022-10-25T07:24:48.770Z,20.67
2022-10-25T07:27:50.969Z,20.40
2022-10-25T07:30:53.189Z,20.52
2022-10-25T07:33:58.477Z,20.53
2022-10-25T07:37:00.625Z,20.71
2022-10-25T07:40:03.982Z,20.77
2022-10-25T07:43:06.206Z,20.72
2022-10-25T07:46:08.193Z,20.71
2022-10-25T07:49:10.630Z,20.69
2022-10-25T07:52:14.071Z,20.71
2022-10-25T07:55:16.263Z,20.67
2022-10-25T07:58:18.666Z,20.71
2022-10-25T08:01:23.628Z,20.54
2022-10-25T08:04:26.097Z,20.54
2022-10-25T08:07:28.716Z,20.56
2022-10-25T08:10:31.193Z,20.28
2022-10-25T08:13:33.318Z,20.45
2022-10-25T08:16:35.336Z,20.36
2022-10-25T08:19:37.603Z,20.15
2022-10-25T08:22:39.739Z,20.31
2022-10-25T08:25:41.914Z,20.22
2022-10-25T08:28:43.986Z,20.25
2022-10-25T08:31:48.421Z,20.24
2022-10-25T08:34:50.500Z,20.24
2022-10-25T08:37:52.745Z,20.27
2022-10-25T08:41:03.668Z,20.26
2022-10-25T08:44:21.082Z,20.23
2022-10-25T08:47:35.293Z,20.17
2022-10-25T08:50:52.295Z,20.13
2022-10-25T08:53:58.379Z,20.18
2022-10-25T08:57:16.194Z,20.27
2022-10-25T09:00:22.655Z,20.39
2022-10-25T09:03:26.754Z,20.47
2022-10-25T09:06:36.158Z,20.47
2022-10-25T09:10:09.323Z,20.43
2022-10-25T09:13:15.958Z,20.40
2022-10-25T09:16:22.019Z,20.29
2022-10-25T09:19:35.778Z,20.23
2022-10-25T09:23:00.847Z,20.32
2022-10-25T09:26:24.147Z,20.30
2022-10-25T09:29:31.050Z,20.27
2022-10-25T09:32:45.722Z,20.22
2022-10-25T09:35:53.408Z,20.24
2022-10-25T09:39:00.113Z,20.29
2022-10-25T09:42:03.570Z,20.28
2022-10-25T09:45:16.434Z,20.24
2022-10-25T09:48:31.701Z,20.20
2022-10-25T09:51:35.168Z,20.34
2022-10-25T09:54:52.685Z,20.36
2022-10-25T09:57:55.820Z,20.40
2022-10-25T10:01:02.096Z,20.53
2022-10-25T10:04:19.932Z,20.53
2022-10-25T10:07:31.171Z,20.64
2022-10-25T10:10:35.734Z,20.55
2022-10-25T10:13:47.116Z,20.49
2022-10-25T10:16:53.076Z,20.39
2022-10-25T10:20:16.777Z,20.34
2022-10-25T10:23:20.183Z,20.25
2022-10-25T10:26:28.652Z,20.37
2022-10-25T10:29:30.560Z,20.35
2022-10-25T10:32:36.241Z,20.19
2022-10-25T10:35:38.425Z,20.24
2022-10-25T10:38:40.467Z,20.25
2022-10-25T10:42:03.235Z,20.22
2022-10-25T10:45:08.498Z,20.19
2022-10-25T10:48:21.155Z,19.95
2022-10-25T10:51:44.918Z,20.13
2022-10-25T10:54:50.794Z,20.00
2022-10-25T10:57:54.493Z,19.94
2022-10-25T11:01:00.907Z,20.00
2022-10-25T11:04:03.552Z,20.08
2022-10-25T11:07:34.208Z,20.05
2022-10-25T11:10:37.784Z,19.97
2022-10-25T11:13:40.779Z,19.95
2022-10-25T11:17:15.028Z,20.01
2022-10-25T11:20:20.290Z,20.08
2022-10-25T11:23:29.215Z,20.13
2022-10-25T11:26:52.173Z,20.14
2022-10-25T11:30:06.362Z,20.16
2022-10-25T11:33:30.485Z,20.18
2022-10-25T11:37:00.907Z,20.20
2022-10-25T11:40:06.159Z,20.27
2022-10-25T11:43:29.684Z,20.35
2022-10-25T11:47:05.120Z,20.34
2022-10-25T11:50:19.152Z,20.36
2022-10-25T11:53:27.090Z,20.38
2022-10-25T11:56:52.355Z,20.42
2022-10-25T12:00:12.732Z,20.47
2022-10-25T12:03:45.784Z,20.47
2022-10-25T12:07:03.958Z,20.28
2022-10-25T12:10:35.619Z,20.38
2022-10-25T12:13:44.841Z,20.43
2022-10-25T12:16:48.496Z,20.28
2022-10-25T12:19:52.590Z,20.19
2022-10-25T12:23:01.489Z,20.20
2022-10-25T12:26:13.583Z,20.14
2022-10-25T12:29:24.462Z,20.05
2022-10-25T12:32:37.834Z,20.03
2022-10-25T12:35:55.239Z,19.78
2022-10-25T12:39:02.652Z,19.94
2022-10-25T12:42:20.792Z,19.84
2022-10-25T12:45:41.773Z,19.88
2022-10-25T12:48:49.780Z,19.83
2022-10-25T12:52:08.288Z,19.84
2022-10-25T12:55:57.884Z,19.80
2022-10-25T12:59:21.574Z,19.77
2022-10-25T13:02:49.257Z,19.75
2022-10-25T13:06:17.967Z,19.74
2022-10-25T13:09:26.941Z,19.65
2022-10-25T13:12:33.578Z,19.57
2022-10-25T13:15:47.500Z,19.57
2022-10-25T13:19:12.428Z,19.64
2022-10-25T13:22:45.567Z,19.60
2022-10-25T13:26:02.506Z,19.57
2022-10-25T13:29:45.059Z,19.55
2022-10-25T13:33:15.951Z,19.46
2022-10-25T13:36:59.787Z,19.51
2022-10-25T13:40:09.075Z,19.34
2022-10-25T13:44:00.907Z,19.49
2022-10-25T13:47:03.715Z,19.32
2022-10-25T13:50:42.853Z,19.47
2022-10-25T13:53:54.644Z,19.42
2022-10-25T14:01:04.232Z,19.45
2022-10-25T14:09:36.756Z,19.29
2022-10-25T14:12:45.290Z,19.38
2022-10-25T14:15:57.074Z,19.34
2022-10-25T14:19:12.610Z,19.36
2022-10-25T14:22:18.664Z,19.37
2022-10-25T14:25:33.462Z,19.33
2022-10-25T14:28:36.268Z,19.24
2022-10-25T14:31:38.434Z,19.29
2022-10-25T14:35:31.165Z,19.24
2022-10-25T14:38:57.891Z,19.20
2022-10-25T14:42:19.048Z,19.12
2022-10-25T14:45:27.473Z,19.11
2022-10-25T14:48:31.520Z,18.98
2022-10-25T14:51:42.346Z,19.14
2022-10-25T14:55:01.188Z,18.98
2022-10-25T14:58:04.538Z,19.01
2022-10-25T15:01:07.675Z,19.02
2022-10-25T15:04:14.225Z,18.97
2022-10-25T15:07:25.605Z,18.87
2022-10-25T15:10:31.344Z,18.95
2022-10-25T15:13:50.363Z,18.94
2022-10-25T15:17:01.004Z,18.93
2022-10-25T15:20:29.303Z,18.86
2022-10-25T15:23:31.747Z,18.75
2022-10-25T15:26:54.584Z,18.81
2022-10-25T15:29:58.360Z,18.75
2022-10-25T15:33:05.451Z,18.96
2022-10-25T15:36:19.687Z,19.00
2022-10-25T15:39:29.870Z,19.30
2022-10-25T15:42:34.374Z,19.42
2022-10-25T15:45:38.153Z,20.44
2022-10-25T15:48:47.406Z,21.37
2022-10-25T15:51:50.551Z,21.75
2022-10-25T15:54:55.663Z,21.97
2022-10-25T15:58:05.861Z,23.11
2022-10-25T16:01:10.667Z,23.13
2022-10-25T16:04:18.012Z,23.10
2022-10-25T16:07:24.179Z,22.91
2022-10-25T16:10:32.775Z,23.06
2022-10-25T16:14:01.077Z,23.10
2022-10-25T16:17:23.111Z,23.05
2022-10-25T16:20:30.501Z,22.61
2022-10-25T16:23:34.114Z,22.31
2022-10-25T16:26:53.161Z,22.31
2022-10-25T16:29:55.590Z,22.29
2022-10-25T16:33:03.682Z,22.00
2022-10-25T16:36:06.985Z,21.61
2022-10-25T16:39:12.263Z,21.28
2022-10-25T16:42:48.530Z,20.97
2022-10-25T16:45:50.945Z,20.88
2022-10-25T16:48:57.080Z,20.70
2022-10-25T16:52:02.216Z,20.73
2022-10-25T16:55:06.290Z,20.59
2022-10-25T16:58:13.122Z,20.48
2022-10-25T17:01:34.155Z,20.52
2022-10-25T17:04:37.345Z,20.43
2022-10-25T17:08:04.162Z,20.85
2022-10-25T17:11:13.546Z,20.85
2022-10-25T17:14:15.760Z,20.97
2022-10-25T17:17:18.338Z,21.07
2022-10-25T17:20:20.375Z,20.93
2022-10-25T17:23:27.292Z,20.78
2022-10-25T17:26:32.608Z,20.81
2022-10-25T17:29:37.469Z,20.69
2022-10-25T17:32:42.691Z,20.59
2022-10-25T17:35:45.194Z,20.61
2022-10-25T17:38:48.275Z,20.69
2022-10-25T17:41:51.024Z,20.56
2022-10-25T17:44:53.258Z,20.73
2022-10-25T17:47:57.888Z,20.72
2022-10-25T17:51:08.529Z,20.65
2022-10-25T17:54:11.153Z,20.60
2022-10-25T17:57:17.256Z,20.63
2022-10-25T18:00:20.455Z,20.30
2022-10-25T18:03:22.518Z,20.05
2022-10-25T18:06:25.980Z,19.91
2022-10-25T18:09:30.746Z,19.84
2022-10-25T18:12:34.114Z,19.74
2022-10-25T18:15:39.264Z,19.64
2022-10-25T18:18:41.237Z,19.53
2022-10-25T18:21:44.337Z,19.56
2022-10-25T18:24:46.438Z,19.48
2022-10-25T18:27:48.529Z,19.43
2022-10-25T18:30:50.955Z,19.43
2022-10-25T18:33:59.289Z,19.41
2022-10-25T18:37:03.308Z,19.48
2022-10-25T18:40:06.546Z,19.40
2022-10-25T18:43:11.648Z,19.50
2022-10-25T18:46:17.889Z,19.72
2022-10-25T18:49:20.192Z,19.99
2022-10-25T18:52:33.190Z,20.16
2022-10-25T18:55:35.327Z,20.27
2022-10-25T18:58:37.911Z,20.34
2022-10-25T19:01:40.150Z,20.40
2022-10-25T19:04:42.204Z,20.32
2022-10-25T19:07:47.560Z,20.36
2022-10-25T19:10:50.365Z,20.33
2022-10-25T19:13:54.958Z,20.32
2022-10-25T19:16:57.226Z,20.20
2022-10-25T19:20:01.987Z,20.24
2022-10-25T19:23:04.325Z,20.19
2022-10-25T19:26:09.146Z,20.04
2022-10-25T19:29:11.829Z,19.92
2022-10-25T19:32:14.203Z,19.95
2022-10-25T19:35:18.178Z,19.96
2022-10-25T19:38:20.119Z,19.91
2022-10-25T19:41:24.020Z,19.90
2022-10-25T19:44:26.153Z,19.84
2022-10-25T19:47:28.269Z,19.69
2022-10-25T19:50:30.550Z,20.09
2022-10-25T19:53:33.104Z,20.16
2022-10-25T19:56:37.348Z,20.16
2022-10-25T19:59:39.475Z,19.99
2022-10-25T20:02:41.716Z,20.04
2022-10-25T20:05:43.739Z,19.94
2022-10-25T20:08:47.644Z,19.83
2022-10-25T20:11:49.634Z,19.73
2022-10-25T20:14:51.679Z,19.58
2022-10-25T20:17:53.796Z,19.56
2022-10-25T20:21:06.473Z,19.51
2022-10-25T20:24:09.981Z,19.37
2022-10-25T20:27:12.341Z,19.40
2022-10-25T20:30:17.564Z,19.31
2022-10-25T20:33:21.488Z,19.28
2022-10-25T20:36:25.314Z,19.22
2022-10-25T20:39:27.295Z,19.11
2022-10-25T20:42:29.328Z,19.08
2022-10-25T20:45:32.076Z,19.06
2022-10-25T20:48:38.356Z,18.90
2022-10-25T20:51:40.449Z,18.95
2022-10-25T20:54:42.588Z,18.79
2022-10-25T20:57:46.508Z,18.81
2022-10-25T21:00:52.102Z,18.75
2022-10-25T21:03:54.315Z,18.72
2022-10-25T21:06:56.296Z,18.58
2022-10-25T21:09:59.353Z,18.53
2022-10-25T21:13:01.455Z,18.55
2022-10-25T21:16:08.502Z,18.54
2022-10-25T21:19:13.065Z,18.57
2022-10-25T21:22:16.382Z,18.45
2022-10-25T21:25:18.495Z,18.30
2022-10-25T21:28:20.585Z,18.39
2022-10-25T21:31:23.687Z,18.42
2022-10-25T21:34:25.824Z,18.34
2022-10-25T21:37:28.431Z,18.40
2022-10-25T21:40:31.726Z,18.38
2022-10-25T21:43:34.721Z,18.33
2022-10-25T21:46:36.762Z,18.25
2022-10-25T21:49:38.679Z,18.32
2022-10-25T21:52:40.697Z,18.28
2022-10-25T21:55:42.745Z,18.27
2022-10-25T21:58:47.315Z,18.25
2022-10-25T22:01:49.794Z,18.25
2022-10-25T22:04:51.876Z,18.11
2022-10-25T22:07:53.978Z,18.07
2022-10-25T22:11:01.453Z,18.14
2022-10-25T22:14:05.972Z,18.05
2022-10-25T22:17:09.189Z,17.88
2022-10-25T22:20:11.340Z,17.98
2022-10-25T22:23:13.451Z,18.00
2022-10-25T22:26:18.395Z,17.93
2022-10-25T22:29:20.649Z,17.91
2022-10-25T22:32:22.686Z,18.00
2022-10-25T22:35:25.061Z,17.95
2022-10-25T22:38:28.269Z,18.05
2022-10-25T22:41:31.323Z,17.99
2022-10-25T22:44:33.417Z,18.01
2022-10-25T22:47:35.499Z,17.98
2022-10-25T22:50:37.553Z,17.93
2022-10-25T22:53:40.884Z,17.92
2022-10-25T22:56:42.912Z,17.89
2022-10-25T22:59:44.984Z,17.84
2022-10-25T23:02:47.163Z,17.81
2022-10-25T23:05:56.956Z,17.74
2022-10-25T23:09:00.950Z,17.71
2022-10-25T23:12:03.083Z,17.70
2022-10-25T23:15:05.480Z,17.67
2022-10-25T23:18:07.556Z,17.65
2022-10-25T23:21:20.944Z,17.74
2022-10-25T23:24:23.023Z,17.62
2022-10-25T23:27:28.910Z,17.66
2022-10-25T23:30:33.713Z,17.54
2022-10-25T23:33:35.894Z,17.57
2022-10-25T23:36:38.188Z,17.48
2022-10-25T23:39:41.060Z,17.45
2022-10-25T23:42:45.999Z,17.41
2022-10-25T23:45:48.177Z,17.39
2022-10-25T23:48:50.089Z,17.39
2022-10-25T23:51:52.115Z,17.41
2022-10-25T23:54:54.160Z,17.31
2022-10-25T23:57:59.757Z,17.23
